sensor_id;sensor_type;location;lat;lon;timestamp;P1;durP1;ratioP1;P2;durP2;ratioP2
32038;SDS011;18549;42.286;22.688;2022-07-10T00:00:46;4.68;;;3.67;;
32038;SDS011;18549;42.286;22.688;2022-07-10T00:03:12;7.62;;;4.15;;
32038;SDS011;18549;42.286;22.688;2022-07-10T00:05:38;5.65;;;3.97;;
32038;SDS011;18549;42.286;22.688;2022-07-10T00:08:06;4.43;;;3.42;;
32038;SDS011;18549;42.286;22.688;2022-07-10T00:10:32;5.10;;;3.28;;
32038;SDS011;18549;42.286;22.688;2022-07-10T00:13:00;4.22;;;3.72;;
32038;SDS011;18549;42.286;22.688;2022-07-10T00:15:26;5.50;;;3.83;;
32038;SDS011;18549;42.286;22.688;2022-07-10T00:17:55;5.53;;;4.28;;
32038;SDS011;18549;42.286;22.688;2022-07-10T00:20:21;5.07;;;3.58;;
32038;SDS011;18549;42.286;22.688;2022-07-10T00:22:46;7.97;;;3.30;;
32038;SDS011;18549;42.286;22.688;2022-07-10T00:25:13;8.43;;;4.40;;
32038;SDS011;18549;42.286;22.688;2022-07-10T00:27:39;6.32;;;3.95;;
32038;SDS011;18549;42.286;22.688;2022-07-10T00:30:06;5.07;;;3.03;;
32038;SDS011;18549;42.286;22.688;2022-07-10T00:32:33;6.12;;;4.62;;
32038;SDS011;18549;42.286;22.688;2022-07-10T00:34:59;5.50;;;3.67;;
32038;SDS011;18549;42.286;22.688;2022-07-10T00:37:24;4.53;;;4.12;;
32038;SDS011;18549;42.286;22.688;2022-07-10T00:39:50;5.85;;;4.10;;
32038;SDS011;18549;42.286;22.688;2022-07-10T00:42:18;10.93;;;5.20;;
32038;SDS011;18549;42.286;22.688;2022-07-10T00:44:44;7.18;;;4.85;;
32038;SDS011;18549;42.286;22.688;2022-07-10T00:47:10;5.53;;;4.03;;
32038;SDS011;18549;42.286;22.688;2022-07-10T00:49:37;5.07;;;3.90;;
32038;SDS011;18549;42.286;22.688;2022-07-10T00:52:07;4.60;;;3.87;;
32038;SDS011;18549;42.286;22.688;2022-07-10T00:54:37;4.55;;;3.70;;
32038;SDS011;18549;42.286;22.688;2022-07-10T00:57:04;3.90;;;3.60;;
32038;SDS011;18549;42.286;22.688;2022-07-10T00:59:31;4.68;;;3.30;;
32038;SDS011;18549;42.286;22.688;2022-07-10T01:01:57;7.22;;;3.55;;
32038;SDS011;18549;42.286;22.688;2022-07-10T01:04:25;4.37;;;3.45;;
32038;SDS011;18549;42.286;22.688;2022-07-10T01:06:50;4.10;;;3.70;;
32038;SDS011;18549;42.286;22.688;2022-07-10T01:09:17;6.03;;;3.55;;
32038;SDS011;18549;42.286;22.688;2022-07-10T01:11:43;3.97;;;3.58;;
32038;SDS011;18549;42.286;22.688;2022-07-10T01:14:09;4.20;;;3.80;;
32038;SDS011;18549;42.286;22.688;2022-07-10T01:16:36;4.07;;;3.67;;
32038;SDS011;18549;42.286;22.688;2022-07-10T01:19:02;9.52;;;3.42;;
32038;SDS011;18549;42.286;22.688;2022-07-10T01:23:56;4.18;;;3.78;;
32038;SDS011;18549;42.286;22.688;2022-07-10T01:26:22;4.18;;;3.78;;
32038;SDS011;18549;42.286;22.688;2022-07-10T01:28:49;6.50;;;3.75;;
32038;SDS011;18549;42.286;22.688;2022-07-10T01:31:19;6.72;;;4.10;;
32038;SDS011;18549;42.286;22.688;2022-07-10T01:33:46;9.23;;;4.60;;
32038;SDS011;18549;42.286;22.688;2022-07-10T01:36:12;11.00;;;4.60;;
32038;SDS011;18549;42.286;22.688;2022-07-10T01:38:39;7.93;;;4.82;;
32038;SDS011;18549;42.286;22.688;2022-07-10T01:41:05;7.00;;;4.30;;
32038;SDS011;18549;42.286;22.688;2022-07-10T01:43:35;8.25;;;4.95;;
32038;SDS011;18549;42.286;22.688;2022-07-10T01:46:02;11.55;;;4.62;;
32038;SDS011;18549;42.286;22.688;2022-07-10T01:48:29;5.72;;;4.95;;
32038;SDS011;18549;42.286;22.688;2022-07-10T01:50:55;6.10;;;4.55;;
32038;SDS011;18549;42.286;22.688;2022-07-10T01:53:22;6.97;;;4.90;;
32038;SDS011;18549;42.286;22.688;2022-07-10T01:55:47;10.55;;;5.40;;
32038;SDS011;18549;42.286;22.688;2022-07-10T01:58:13;7.00;;;4.40;;
32038;SDS011;18549;42.286;22.688;2022-07-10T02:00:39;9.43;;;4.75;;
32038;SDS011;18549;42.286;22.688;2022-07-10T02:03:05;9.50;;;4.72;;
32038;SDS011;18549;42.286;22.688;2022-07-10T02:05:49;9.93;;;5.32;;
32038;SDS011;18549;42.286;22.688;2022-07-10T02:08:15;11.02;;;5.12;;
32038;SDS011;18549;42.286;22.688;2022-07-10T02:10:40;9.05;;;6.00;;
32038;SDS011;18549;42.286;22.688;2022-07-10T02:13:06;12.77;;;5.37;;
32038;SDS011;18549;42.286;22.688;2022-07-10T02:15:32;8.75;;;5.65;;
32038;SDS011;18549;42.286;22.688;2022-07-10T02:17:58;9.23;;;4.90;;
32038;SDS011;18549;42.286;22.688;2022-07-10T02:20:24;6.85;;;4.78;;
32038;SDS011;18549;42.286;22.688;2022-07-10T02:22:51;8.30;;;5.10;;
32038;SDS011;18549;42.286;22.688;2022-07-10T02:25:16;9.98;;;4.93;;
32038;SDS011;18549;42.286;22.688;2022-07-10T02:27:42;5.70;;;4.97;;
32038;SDS011;18549;42.286;22.688;2022-07-10T02:30:08;7.22;;;5.72;;
32038;SDS011;18549;42.286;22.688;2022-07-10T02:32:34;12.37;;;5.72;;
32038;SDS011;18549;42.286;22.688;2022-07-10T02:35:00;6.12;;;4.95;;
32038;SDS011;18549;42.286;22.688;2022-07-10T02:37:26;8.70;;;6.62;;
32038;SDS011;18549;42.286;22.688;2022-07-10T02:39:52;10.23;;;7.28;;
32038;SDS011;18549;42.286;22.688;2022-07-10T02:42:19;8.77;;;7.30;;
32038;SDS011;18549;42.286;22.688;2022-07-10T02:44:45;9.85;;;6.82;;
32038;SDS011;18549;42.286;22.688;2022-07-10T02:47:11;6.75;;;5.80;;
32038;SDS011;18549;42.286;22.688;2022-07-10T02:49:36;6.70;;;5.45;;
32038;SDS011;18549;42.286;22.688;2022-07-10T02:52:02;13.62;;;6.47;;
32038;SDS011;18549;42.286;22.688;2022-07-10T02:54:28;8.05;;;5.78;;
32038;SDS011;18549;42.286;22.688;2022-07-10T02:56:54;7.72;;;5.68;;
32038;SDS011;18549;42.286;22.688;2022-07-10T02:59:20;14.57;;;6.57;;
32038;SDS011;18549;42.286;22.688;2022-07-10T03:01:46;6.55;;;5.40;;
32038;SDS011;18549;42.286;22.688;2022-07-10T03:04:12;9.63;;;5.87;;
32038;SDS011;18549;42.286;22.688;2022-07-10T03:06:39;8.40;;;5.80;;
32038;SDS011;18549;42.286;22.688;2022-07-10T03:09:05;6.07;;;4.87;;
32038;SDS011;18549;42.286;22.688;2022-07-10T03:11:32;10.07;;;6.60;;
32038;SDS011;18549;42.286;22.688;2022-07-10T03:13:57;12.88;;;8.27;;
32038;SDS011;18549;42.286;22.688;2022-07-10T03:16:23;34.08;;;19.75;;
32038;SDS011;18549;42.286;22.688;2022-07-10T03:18:49;23.58;;;16.92;;
32038;SDS011;18549;42.286;22.688;2022-07-10T03:21:15;23.17;;;15.73;;
32038;SDS011;18549;42.286;22.688;2022-07-10T03:23:41;20.20;;;11.93;;
32038;SDS011;18549;42.286;22.688;2022-07-10T03:26:06;13.68;;;10.15;;
32038;SDS011;18549;42.286;22.688;2022-07-10T03:28:34;13.48;;;9.10;;
32038;SDS011;18549;42.286;22.688;2022-07-10T03:31:01;13.07;;;11.00;;
32038;SDS011;18549;42.286;22.688;2022-07-10T03:33:27;17.40;;;13.32;;
32038;SDS011;18549;42.286;22.688;2022-07-10T03:35:54;14.07;;;10.45;;
32038;SDS011;18549;42.286;22.688;2022-07-10T03:38:20;13.85;;;10.05;;
32038;SDS011;18549;42.286;22.688;2022-07-10T03:40:46;13.48;;;8.77;;
32038;SDS011;18549;42.286;22.688;2022-07-10T03:43:15;13.10;;;9.15;;
32038;SDS011;18549;42.286;22.688;2022-07-10T03:45:41;15.68;;;7.75;;
32038;SDS011;18549;42.286;22.688;2022-07-10T03:48:07;11.23;;;8.13;;
32038;SDS011;18549;42.286;22.688;2022-07-10T03:50:33;14.00;;;8.05;;
32038;SDS011;18549;42.286;22.688;2022-07-10T03:52:59;9.90;;;7.75;;
32038;SDS011;18549;42.286;22.688;2022-07-10T03:55:25;8.93;;;6.87;;
32038;SDS011;18549;42.286;22.688;2022-07-10T03:57:50;8.48;;;7.22;;
32038;SDS011;18549;42.286;22.688;2022-07-10T04:00:25;10.38;;;7.78;;
32038;SDS011;18549;42.286;22.688;2022-07-10T04:02:56;18.35;;;8.32;;
32038;SDS011;18549;42.286;22.688;2022-07-10T04:05:23;11.20;;;7.85;;
32038;SDS011;18549;42.286;22.688;2022-07-10T04:07:50;11.50;;;7.70;;
32038;SDS011;18549;42.286;22.688;2022-07-10T04:10:17;10.80;;;7.10;;
32038;SDS011;18549;42.286;22.688;2022-07-10T04:12:44;10.82;;;8.18;;
32038;SDS011;18549;42.286;22.688;2022-07-10T04:15:10;15.55;;;8.48;;
32038;SDS011;18549;42.286;22.688;2022-07-10T04:17:36;10.35;;;7.50;;
32038;SDS011;18549;42.286;22.688;2022-07-10T04:20:02;14.05;;;8.38;;
32038;SDS011;18549;42.286;22.688;2022-07-10T04:22:28;18.42;;;8.00;;
32038;SDS011;18549;42.286;22.688;2022-07-10T04:24:54;12.25;;;7.03;;
32038;SDS011;18549;42.286;22.688;2022-07-10T04:27:20;11.32;;;6.57;;
32038;SDS011;18549;42.286;22.688;2022-07-10T04:29:47;9.00;;;6.57;;
32038;SDS011;18549;42.286;22.688;2022-07-10T04:32:14;12.32;;;5.70;;
32038;SDS011;18549;42.286;22.688;2022-07-10T04:34:41;7.22;;;5.47;;
32038;SDS011;18549;42.286;22.688;2022-07-10T04:37:07;8.05;;;6.10;;
32038;SDS011;18549;42.286;22.688;2022-07-10T04:39:34;5.68;;;5.00;;
32038;SDS011;18549;42.286;22.688;2022-07-10T04:42:05;6.55;;;5.87;;
32038;SDS011;18549;42.286;22.688;2022-07-10T04:44:31;6.22;;;5.30;;
32038;SDS011;18549;42.286;22.688;2022-07-10T04:46:57;8.57;;;5.62;;
32038;SDS011;18549;42.286;22.688;2022-07-10T04:49:24;8.25;;;5.75;;
32038;SDS011;18549;42.286;22.688;2022-07-10T04:51:50;8.60;;;5.87;;
32038;SDS011;18549;42.286;22.688;2022-07-10T04:54:16;8.23;;;6.20;;
32038;SDS011;18549;42.286;22.688;2022-07-10T04:56:41;11.45;;;6.20;;
32038;SDS011;18549;42.286;22.688;2022-07-10T04:59:08;8.00;;;5.43;;
32038;SDS011;18549;42.286;22.688;2022-07-10T05:01:35;6.03;;;4.78;;
32038;SDS011;18549;42.286;22.688;2022-07-10T05:04:02;6.00;;;5.37;;
32038;SDS011;18549;42.286;22.688;2022-07-10T05:06:29;9.73;;;5.70;;
32038;SDS011;18549;42.286;22.688;2022-07-10T05:08:55;11.55;;;5.85;;
32038;SDS011;18549;42.286;22.688;2022-07-10T05:11:22;6.40;;;5.47;;
32038;SDS011;18549;42.286;22.688;2022-07-10T05:13:48;11.55;;;5.90;;
32038;SDS011;18549;42.286;22.688;2022-07-10T05:16:14;5.65;;;5.05;;
32038;SDS011;18549;42.286;22.688;2022-07-10T05:18:41;10.57;;;5.07;;
32038;SDS011;18549;42.286;22.688;2022-07-10T05:21:07;5.85;;;5.25;;
32038;SDS011;18549;42.286;22.688;2022-07-10T05:23:33;6.40;;;4.87;;
32038;SDS011;18549;42.286;22.688;2022-07-10T05:26:00;5.97;;;5.10;;
32038;SDS011;18549;42.286;22.688;2022-07-10T05:28:26;6.18;;;5.05;;
32038;SDS011;18549;42.286;22.688;2022-07-10T05:30:52;8.02;;;5.28;;
32038;SDS011;18549;42.286;22.688;2022-07-10T05:33:19;11.95;;;4.65;;
32038;SDS011;18549;42.286;22.688;2022-07-10T05:35:44;5.80;;;4.93;;
32038;SDS011;18549;42.286;22.688;2022-07-10T05:38:10;6.03;;;5.12;;
32038;SDS011;18549;42.286;22.688;2022-07-10T05:40:36;7.40;;;4.70;;
32038;SDS011;18549;42.286;22.688;2022-07-10T05:43:02;6.78;;;5.68;;
32038;SDS011;18549;42.286;22.688;2022-07-10T05:45:29;9.55;;;5.50;;
32038;SDS011;18549;42.286;22.688;2022-07-10T05:47:56;8.02;;;5.03;;
32038;SDS011;18549;42.286;22.688;2022-07-10T05:50:22;6.12;;;5.40;;
32038;SDS011;18549;42.286;22.688;2022-07-10T05:52:47;7.18;;;5.15;;
32038;SDS011;18549;42.286;22.688;2022-07-10T05:55:13;7.60;;;5.62;;
32038;SDS011;18549;42.286;22.688;2022-07-10T05:57:39;14.93;;;5.57;;
32038;SDS011;18549;42.286;22.688;2022-07-10T06:00:07;6.47;;;4.97;;
32038;SDS011;18549;42.286;22.688;2022-07-10T06:02:33;8.23;;;5.10;;
32038;SDS011;18549;42.286;22.688;2022-07-10T06:05:00;5.78;;;4.72;;
32038;SDS011;18549;42.286;22.688;2022-07-10T06:07:26;5.62;;;5.07;;
32038;SDS011;18549;42.286;22.688;2022-07-10T06:09:53;5.65;;;4.97;;
32038;SDS011;18549;42.286;22.688;2022-07-10T06:12:20;10.57;;;6.03;;
32038;SDS011;18549;42.286;22.688;2022-07-10T06:14:46;10.35;;;5.50;;
32038;SDS011;18549;42.286;22.688;2022-07-10T06:17:12;6.72;;;5.47;;
32038;SDS011;18549;42.286;22.688;2022-07-10T06:19:37;8.32;;;5.30;;
32038;SDS011;18549;42.286;22.688;2022-07-10T06:22:05;9.95;;;5.53;;
32038;SDS011;18549;42.286;22.688;2022-07-10T06:24:49;6.15;;;5.18;;
32038;SDS011;18549;42.286;22.688;2022-07-10T06:27:15;5.37;;;4.65;;
32038;SDS011;18549;42.286;22.688;2022-07-10T06:29:41;6.07;;;4.47;;
32038;SDS011;18549;42.286;22.688;2022-07-10T06:32:06;6.50;;;4.90;;
32038;SDS011;18549;42.286;22.688;2022-07-10T06:34:32;7.65;;;4.72;;
32038;SDS011;18549;42.286;22.688;2022-07-10T06:36:58;6.28;;;5.18;;
32038;SDS011;18549;42.286;22.688;2022-07-10T06:39:25;5.62;;;4.20;;
32038;SDS011;18549;42.286;22.688;2022-07-10T06:41:50;4.50;;;4.10;;
32038;SDS011;18549;42.286;22.688;2022-07-10T06:44:16;6.20;;;4.00;;
32038;SDS011;18549;42.286;22.688;2022-07-10T06:46:42;4.95;;;3.60;;
32038;SDS011;18549;42.286;22.688;2022-07-10T06:49:28;5.20;;;3.67;;
32038;SDS011;18549;42.286;22.688;2022-07-10T06:51:54;4.95;;;3.40;;
32038;SDS011;18549;42.286;22.688;2022-07-10T06:54:21;8.02;;;4.12;;
32038;SDS011;18549;42.286;22.688;2022-07-10T06:56:47;5.43;;;3.97;;
32038;SDS011;18549;42.286;22.688;2022-07-10T06:59:13;6.90;;;3.25;;
32038;SDS011;18549;42.286;22.688;2022-07-10T07:01:39;7.93;;;3.60;;
32038;SDS011;18549;42.286;22.688;2022-07-10T07:04:06;4.70;;;2.58;;
32038;SDS011;18549;42.286;22.688;2022-07-10T07:06:32;5.22;;;2.85;;
32038;SDS011;18549;42.286;22.688;2022-07-10T07:08:58;4.87;;;2.95;;
32038;SDS011;18549;42.286;22.688;2022-07-10T07:11:24;3.10;;;2.60;;
32038;SDS011;18549;42.286;22.688;2022-07-10T07:13:50;3.95;;;3.30;;
32038;SDS011;18549;42.286;22.688;2022-07-10T07:16:16;4.78;;;2.83;;
32038;SDS011;18549;42.286;22.688;2022-07-10T07:18:45;2.40;;;2.20;;
32038;SDS011;18549;42.286;22.688;2022-07-10T07:21:17;4.53;;;2.97;;
32038;SDS011;18549;42.286;22.688;2022-07-10T07:24:01;3.55;;;2.47;;
32038;SDS011;18549;42.286;22.688;2022-07-10T07:26:29;4.18;;;2.50;;
32038;SDS011;18549;42.286;22.688;2022-07-10T07:28:55;3.30;;;2.17;;
32038;SDS011;18549;42.286;22.688;2022-07-10T07:31:21;7.55;;;3.05;;
32038;SDS011;18549;42.286;22.688;2022-07-10T07:33:47;3.45;;;2.25;;
32038;SDS011;18549;42.286;22.688;2022-07-10T07:36:13;6.18;;;2.72;;
32038;SDS011;18549;42.286;22.688;2022-07-10T07:38:39;2.42;;;2.22;;
32038;SDS011;18549;42.286;22.688;2022-07-10T07:41:05;10.50;;;2.30;;
32038;SDS011;18549;42.286;22.688;2022-07-10T07:43:30;2.65;;;1.75;;
32038;SDS011;18549;42.286;22.688;2022-07-10T07:45:57;3.40;;;2.42;;
32038;SDS011;18549;42.286;22.688;2022-07-10T07:48:23;2.80;;;2.10;;
32038;SDS011;18549;42.286;22.688;2022-07-10T07:50:48;4.37;;;2.35;;
32038;SDS011;18549;42.286;22.688;2022-07-10T07:53:15;2.75;;;2.22;;
32038;SDS011;18549;42.286;22.688;2022-07-10T07:55:41;3.33;;;1.95;;
32038;SDS011;18549;42.286;22.688;2022-07-10T07:58:06;2.50;;;1.83;;
32038;SDS011;18549;42.286;22.688;2022-07-10T08:00:32;5.22;;;2.50;;
32038;SDS011;18549;42.286;22.688;2022-07-10T08:02:58;3.37;;;2.15;;
32038;SDS011;18549;42.286;22.688;2022-07-10T08:05:25;3.83;;;2.60;;
32038;SDS011;18549;42.286;22.688;2022-07-10T08:07:53;5.22;;;3.70;;
32038;SDS011;18549;42.286;22.688;2022-07-10T08:10:20;2.70;;;2.08;;
32038;SDS011;18549;42.286;22.688;2022-07-10T08:12:48;3.78;;;2.70;;
32038;SDS011;18549;42.286;22.688;2022-07-10T08:15:16;5.37;;;3.12;;
32038;SDS011;18549;42.286;22.688;2022-07-10T08:17:49;5.53;;;2.33;;
32038;SDS011;18549;42.286;22.688;2022-07-10T08:20:16;5.72;;;2.22;;
32038;SDS011;18549;42.286;22.688;2022-07-10T08:22:43;2.78;;;2.25;;
32038;SDS011;18549;42.286;22.688;2022-07-10T08:25:09;3.83;;;2.37;;
32038;SDS011;18549;42.286;22.688;2022-07-10T08:27:36;4.43;;;2.60;;
32038;SDS011;18549;42.286;22.688;2022-07-10T08:30:04;3.58;;;1.83;;
32038;SDS011;18549;42.286;22.688;2022-07-10T08:32:31;2.83;;;1.92;;
32038;SDS011;18549;42.286;22.688;2022-07-10T08:34:57;3.55;;;2.85;;
32038;SDS011;18549;42.286;22.688;2022-07-10T08:37:24;7.43;;;4.78;;
32038;SDS011;18549;42.286;22.688;2022-07-10T08:39:51;8.02;;;2.35;;
32038;SDS011;18549;42.286;22.688;2022-07-10T08:42:20;9.02;;;3.58;;
32038;SDS011;18549;42.286;22.688;2022-07-10T08:44:47;7.80;;;4.78;;
32038;SDS011;18549;42.286;22.688;2022-07-10T08:47:13;4.03;;;2.35;;
32038;SDS011;18549;42.286;22.688;2022-07-10T08:49:47;2.05;;;1.90;;
32038;SDS011;18549;42.286;22.688;2022-07-10T08:54:54;3.83;;;2.40;;
32038;SDS011;18549;42.286;22.688;2022-07-10T09:00:08;3.05;;;1.90;;
32038;SDS011;18549;42.286;22.688;2022-07-10T09:02:35;3.65;;;2.47;;
32038;SDS011;18549;42.286;22.688;2022-07-10T09:05:01;5.93;;;2.20;;
32038;SDS011;18549;42.286;22.688;2022-07-10T09:07:35;3.92;;;2.42;;
32038;SDS011;18549;42.286;22.688;2022-07-10T09:10:06;4.97;;;2.15;;
32038;SDS011;18549;42.286;22.688;2022-07-10T09:12:55;7.00;;;2.30;;
32038;SDS011;18549;42.286;22.688;2022-07-10T09:15:30;6.00;;;3.05;;
32038;SDS011;18549;42.286;22.688;2022-07-10T09:18:03;3.65;;;2.28;;
32038;SDS011;18549;42.286;22.688;2022-07-10T09:20:33;2.28;;;1.70;;
32038;SDS011;18549;42.286;22.688;2022-07-10T09:23:21;4.78;;;2.45;;
32038;SDS011;18549;42.286;22.688;2022-07-10T09:25:48;3.05;;;1.77;;
32038;SDS011;18549;42.286;22.688;2022-07-10T09:28:16;2.30;;;2.10;;
32038;SDS011;18549;42.286;22.688;2022-07-10T09:30:44;3.03;;;2.17;;
32038;SDS011;18549;42.286;22.688;2022-07-10T09:33:14;5.62;;;1.83;;
32038;SDS011;18549;42.286;22.688;2022-07-10T09:41:23;5.45;;;2.15;;
32038;SDS011;18549;42.286;22.688;2022-07-10T09:43:50;1.70;;;1.27;;
32038;SDS011;18549;42.286;22.688;2022-07-10T09:46:18;4.10;;;1.85;;
32038;SDS011;18549;42.286;22.688;2022-07-10T09:48:46;10.18;;;2.15;;
32038;SDS011;18549;42.286;22.688;2022-07-10T09:51:12;5.15;;;1.87;;
32038;SDS011;18549;42.286;22.688;2022-07-10T09:53:42;6.28;;;1.90;;
32038;SDS011;18549;42.286;22.688;2022-07-10T09:56:10;7.45;;;1.98;;
32038;SDS011;18549;42.286;22.688;2022-07-10T09:58:37;5.20;;;2.35;;
32038;SDS011;18549;42.286;22.688;2022-07-10T10:01:04;8.35;;;3.28;;
32038;SDS011;18549;42.286;22.688;2022-07-10T10:03:35;5.55;;;3.33;;
32038;SDS011;18549;42.286;22.688;2022-07-10T10:06:12;6.72;;;4.12;;
32038;SDS011;18549;42.286;22.688;2022-07-10T10:11:09;4.00;;;2.50;;
32038;SDS011;18549;42.286;22.688;2022-07-10T10:13:40;9.32;;;3.12;;
32038;SDS011;18549;42.286;22.688;2022-07-10T10:16:08;6.30;;;1.87;;
32038;SDS011;18549;42.286;22.688;2022-07-10T10:18:35;3.58;;;2.20;;
32038;SDS011;18549;42.286;22.688;2022-07-10T10:21:02;3.17;;;2.17;;
32038;SDS011;18549;42.286;22.688;2022-07-10T10:23:31;4.60;;;1.77;;
32038;SDS011;18549;42.286;22.688;2022-07-10T10:25:59;5.12;;;1.58;;
32038;SDS011;18549;42.286;22.688;2022-07-10T10:28:25;2.72;;;1.87;;
32038;SDS011;18549;42.286;22.688;2022-07-10T10:30:53;2.67;;;1.40;;
32038;SDS011;18549;42.286;22.688;2022-07-10T10:36:00;2.47;;;1.70;;
32038;SDS011;18549;42.286;22.688;2022-07-10T10:49:16;4.28;;;1.60;;
32038;SDS011;18549;42.286;22.688;2022-07-10T10:57:23;12.82;;;2.05;;
32038;SDS011;18549;42.286;22.688;2022-07-10T11:00:28;9.88;;;1.95;;
32038;SDS011;18549;42.286;22.688;2022-07-10T11:03:17;2.08;;;1.62;;
32038;SDS011;18549;42.286;22.688;2022-07-10T11:05:49;2.75;;;1.65;;
32038;SDS011;18549;42.286;22.688;2022-07-10T11:08:34;6.30;;;1.80;;
32038;SDS011;18549;42.286;22.688;2022-07-10T11:11:26;3.42;;;1.70;;
32038;SDS011;18549;42.286;22.688;2022-07-10T11:14:08;2.15;;;1.30;;
32038;SDS011;18549;42.286;22.688;2022-07-10T11:16:34;2.67;;;1.50;;
32038;SDS011;18549;42.286;22.688;2022-07-10T11:19:01;4.07;;;2.00;;
32038;SDS011;18549;42.286;22.688;2022-07-10T11:21:28;1.85;;;1.50;;
32038;SDS011;18549;42.286;22.688;2022-07-10T11:24:05;6.07;;;1.75;;
32038;SDS011;18549;42.286;22.688;2022-07-10T11:26:53;4.05;;;1.60;;
32038;SDS011;18549;42.286;22.688;2022-07-10T11:29:24;2.22;;;1.48;;
32038;SDS011;18549;42.286;22.688;2022-07-10T11:31:53;3.78;;;1.67;;
32038;SDS011;18549;42.286;22.688;2022-07-10T11:34:20;2.15;;;1.50;;
32038;SDS011;18549;42.286;22.688;2022-07-10T11:36:47;3.53;;;1.60;;
32038;SDS011;18549;42.286;22.688;2022-07-10T11:39:13;5.37;;;1.62;;
32038;SDS011;18549;42.286;22.688;2022-07-10T11:41:43;5.57;;;1.92;;
32038;SDS011;18549;42.286;22.688;2022-07-10T11:44:17;6.62;;;1.40;;
32038;SDS011;18549;42.286;22.688;2022-07-10T11:46:44;2.05;;;1.40;;
32038;SDS011;18549;42.286;22.688;2022-07-10T11:49:14;2.53;;;1.27;;
32038;SDS011;18549;42.286;22.688;2022-07-10T11:51:40;3.50;;;1.62;;
32038;SDS011;18549;42.286;22.688;2022-07-10T11:54:12;6.28;;;1.48;;
32038;SDS011;18549;42.286;22.688;2022-07-10T11:56:41;1.45;;;1.10;;
32038;SDS011;18549;42.286;22.688;2022-07-10T11:59:13;3.67;;;1.85;;
32038;SDS011;18549;42.286;22.688;2022-07-10T12:01:43;3.33;;;1.80;;
32038;SDS011;18549;42.286;22.688;2022-07-10T12:04:10;3.17;;;1.75;;
32038;SDS011;18549;42.286;22.688;2022-07-10T12:06:38;4.05;;;1.75;;
32038;SDS011;18549;42.286;22.688;2022-07-10T12:09:06;8.40;;;1.75;;
32038;SDS011;18549;42.286;22.688;2022-07-10T12:11:36;3.53;;;2.33;;
32038;SDS011;18549;42.286;22.688;2022-07-10T12:14:20;4.37;;;1.87;;
32038;SDS011;18549;42.286;22.688;2022-07-10T12:16:48;8.70;;;3.00;;
32038;SDS011;18549;42.286;22.688;2022-07-10T12:19:20;7.25;;;1.95;;
32038;SDS011;18549;42.286;22.688;2022-07-10T12:21:52;3.17;;;1.90;;
32038;SDS011;18549;42.286;22.688;2022-07-10T12:24:19;3.15;;;1.60;;
32038;SDS011;18549;42.286;22.688;2022-07-10T12:26:46;2.53;;;1.45;;
32038;SDS011;18549;42.286;22.688;2022-07-10T12:29:19;3.58;;;1.70;;
32038;SDS011;18549;42.286;22.688;2022-07-10T12:31:48;4.37;;;1.30;;
32038;SDS011;18549;42.286;22.688;2022-07-10T12:34:16;2.85;;;1.37;;
32038;SDS011;18549;42.286;22.688;2022-07-10T12:36:52;3.67;;;1.20;;
32038;SDS011;18549;42.286;22.688;2022-07-10T12:39:24;8.10;;;1.77;;
32038;SDS011;18549;42.286;22.688;2022-07-10T12:41:57;6.05;;;1.30;;
32038;SDS011;18549;42.286;22.688;2022-07-10T12:47:02;3.72;;;1.35;;
32038;SDS011;18549;42.286;22.688;2022-07-10T12:55:04;2.70;;;1.00;;
32038;SDS011;18549;42.286;22.688;2022-07-10T13:00:27;3.42;;;1.45;;
32038;SDS011;18549;42.286;22.688;2022-07-10T13:03:06;1.55;;;1.17;;
32038;SDS011;18549;42.286;22.688;2022-07-10T13:08:18;8.73;;;1.35;;
32038;SDS011;18549;42.286;22.688;2022-07-10T13:10:57;3.47;;;1.27;;
32038;SDS011;18549;42.286;22.688;2022-07-10T13:13:24;5.12;;;1.37;;
32038;SDS011;18549;42.286;22.688;2022-07-10T13:15:50;2.22;;;1.30;;
32038;SDS011;18549;42.286;22.688;2022-07-10T13:18:20;1.58;;;1.00;;
32038;SDS011;18549;42.286;22.688;2022-07-10T13:20:51;3.05;;;1.17;;
32038;SDS011;18549;42.286;22.688;2022-07-10T13:23:20;5.72;;;1.27;;
32038;SDS011;18549;42.286;22.688;2022-07-10T13:25:51;6.87;;;1.35;;
32038;SDS011;18549;42.286;22.688;2022-07-10T13:28:18;5.25;;;1.37;;
32038;SDS011;18549;42.286;22.688;2022-07-10T13:30:44;1.40;;;1.12;;
32038;SDS011;18549;42.286;22.688;2022-07-10T13:33:11;4.80;;;1.35;;
32038;SDS011;18549;42.286;22.688;2022-07-10T13:35:37;3.55;;;1.58;;
32038;SDS011;18549;42.286;22.688;2022-07-10T13:38:04;3.17;;;1.92;;
32038;SDS011;18549;42.286;22.688;2022-07-10T13:40:31;8.02;;;1.95;;
32038;SDS011;18549;42.286;22.688;2022-07-10T13:42:58;3.50;;;1.50;;
32038;SDS011;18549;42.286;22.688;2022-07-10T13:45:25;6.15;;;1.90;;
32038;SDS011;18549;42.286;22.688;2022-07-10T13:47:56;2.00;;;1.33;;
32038;SDS011;18549;42.286;22.688;2022-07-10T13:50:22;2.50;;;1.17;;
32038;SDS011;18549;42.286;22.688;2022-07-10T13:52:49;7.78;;;2.00;;
32038;SDS011;18549;42.286;22.688;2022-07-10T13:55:18;5.30;;;1.40;;
32038;SDS011;18549;42.286;22.688;2022-07-10T13:57:44;1.60;;;1.30;;
32038;SDS011;18549;42.286;22.688;2022-07-10T14:00:10;2.47;;;1.20;;
32038;SDS011;18549;42.286;22.688;2022-07-10T14:02:37;2.83;;;1.20;;
32038;SDS011;18549;42.286;22.688;2022-07-10T14:05:05;5.65;;;1.50;;
32038;SDS011;18549;42.286;22.688;2022-07-10T14:07:33;5.15;;;1.40;;
32038;SDS011;18549;42.286;22.688;2022-07-10T14:10:00;2.60;;;1.45;;
32038;SDS011;18549;42.286;22.688;2022-07-10T14:12:26;2.50;;;1.12;;
32038;SDS011;18549;42.286;22.688;2022-07-10T14:14:52;6.45;;;1.67;;
32038;SDS011;18549;42.286;22.688;2022-07-10T14:17:19;2.72;;;1.55;;
32038;SDS011;18549;42.286;22.688;2022-07-10T14:19:46;3.25;;;1.08;;
32038;SDS011;18549;42.286;22.688;2022-07-10T14:22:11;2.12;;;1.50;;
32038;SDS011;18549;42.286;22.688;2022-07-10T14:24:37;2.95;;;1.30;;
32038;SDS011;18549;42.286;22.688;2022-07-10T14:27:03;6.78;;;1.95;;
32038;SDS011;18549;42.286;22.688;2022-07-10T14:29:29;6.62;;;1.83;;
32038;SDS011;18549;42.286;22.688;2022-07-10T14:31:55;2.95;;;2.08;;
32038;SDS011;18549;42.286;22.688;2022-07-10T14:34:22;6.30;;;1.62;;
32038;SDS011;18549;42.286;22.688;2022-07-10T14:36:53;2.15;;;1.30;;
32038;SDS011;18549;42.286;22.688;2022-07-10T14:39:19;3.30;;;2.15;;
32038;SDS011;18549;42.286;22.688;2022-07-10T14:41:45;5.22;;;2.35;;
32038;SDS011;18549;42.286;22.688;2022-07-10T14:44:11;2.83;;;1.90;;
32038;SDS011;18549;42.286;22.688;2022-07-10T14:46:36;3.10;;;1.60;;
32038;SDS011;18549;42.286;22.688;2022-07-10T14:49:02;2.53;;;1.33;;
32038;SDS011;18549;42.286;22.688;2022-07-10T14:51:28;2.50;;;1.40;;
32038;SDS011;18549;42.286;22.688;2022-07-10T14:53:54;2.37;;;1.10;;
32038;SDS011;18549;42.286;22.688;2022-07-10T14:56:21;1.95;;;1.25;;
32038;SDS011;18549;42.286;22.688;2022-07-10T14:58:47;1.40;;;1.30;;
32038;SDS011;18549;42.286;22.688;2022-07-10T15:01:14;3.08;;;1.40;;
32038;SDS011;18549;42.286;22.688;2022-07-10T15:03:40;6.78;;;1.65;;
32038;SDS011;18549;42.286;22.688;2022-07-10T15:06:06;2.60;;;1.10;;
32038;SDS011;18549;42.286;22.688;2022-07-10T15:08:32;2.20;;;1.23;;
32038;SDS011;18549;42.286;22.688;2022-07-10T15:10:59;2.87;;;1.25;;
32038;SDS011;18549;42.286;22.688;2022-07-10T15:13:25;2.35;;;1.10;;
32038;SDS011;18549;42.286;22.688;2022-07-10T15:15:52;2.62;;;0.90;;
32038;SDS011;18549;42.286;22.688;2022-07-10T15:18:19;1.50;;;1.20;;
32038;SDS011;18549;42.286;22.688;2022-07-10T15:20:46;6.00;;;0.95;;
32038;SDS011;18549;42.286;22.688;2022-07-10T15:23:12;1.70;;;1.33;;
32038;SDS011;18549;42.286;22.688;2022-07-10T15:25:39;4.43;;;1.20;;